Time;durP1;ratioP1;P1;durP2;ratioP2;P2;SDS_P1;SDS_P2;PMS_P1;PMS_P2;Temp;Humidity;BMP_temperature;BMP_pressure;BME280_temperature;BME280_humidity;BME280_pressure;Samples;Min_cycle;Max_cycle;Signal;HPM_P1;HPM_P2
2022/08/05 00:00:12;;;;;;;;;;;;;;;;;;4946639;29;19958;-42
2022/08/05 00:02:38;;;;;;;;;;;;;;;;;;4946653;29;19917;-43
2022/08/05 00:05:05;;;;;;;;;;;;;;;;;;4955687;28;19917;-43
2022/08/05 00:07:31;;;;;;;;;;;;;;;;;;4985336;28;19917;-42
2022/08/05 00:09:58;;;;;;;;;;;;;;;;;;4968482;28;19911;-43
2022/08/05 00:12:24;;;;;;;;;;;;;;;;;;4966840;28;19914;-46
2022/08/05 00:14:50;;;;;;;;;;;;;;;;;;4965885;28;20037;-43
2022/08/05 00:17:15;;;;;;;;;;;;;;;;;;4965961;28;19936;-46
2022/08/05 00:19:41;;;;;;;;;;;;;;;;;;4965783;28;20249;-43
2022/08/05 00:22:07;;;;;;;;;;;;;;;;;;4965615;28;19964;-43
2022/08/05 00:24:33;;;;;;;;;;;;;;;;;;4966122;28;20064;-43
2022/08/05 00:26:59;;;;;;;;;;;;;;;;;;4965502;28;19910;-42
2022/08/05 00:29:26;;;;;;;;;;;;;;;;;;4966349;28;19914;-44
2022/08/05 00:31:52;;;;;;;;;;;;;;;;;;4965405;28;19914;-43
2022/08/05 00:34:19;;;;;;;;;;;;;;;;;;4958313;28;19940;-41
2022/08/05 00:36:45;;;;;;;;;;;;;;;;;;4963904;28;19954;-41
2022/08/05 00:39:11;;;;;;;;;;;;;;;;;;4965494;28;19950;-41
2022/08/05 00:41:37;;;;;;;;;;;;;;;;;;4965758;28;19910;-42
2022/08/05 00:44:03;;;;;;;;;;;;;;;;;;4965579;28;19911;-42
2022/08/05 00:46:28;;;;;;;;;;;;;;;;;;4965818;28;19917;-41
2022/08/05 00:48:55;;;;;;;;;;;;;;;;;;4969132;28;19910;-41
2022/08/05 00:51:21;;;;;;;;;;;;;;;;;;4969210;28;19921;-41
2022/08/05 00:53:47;;;;;;;;;;;;;;;;;;4969279;28;19914;-43
2022/08/05 00:56:13;;;;;;;;;;;;;;;;;;4969207;28;19910;-41
2022/08/05 00:58:39;;;;;;;;;;;;;;;;;;4969130;28;20150;-42
2022/08/05 01:01:05;;;;;;;;;;;;;;;;;;4968653;28;19914;-42
2022/08/05 01:03:31;;;;;;;;;;;;;;;;;;4969031;28;19966;-42
2022/08/05 01:05:57;;;;;;;;;;;;;;;;;;4968992;28;20336;-41
2022/08/05 01:08:23;;;;;;;;;;;;;;;;;;4969401;28;19917;-41
2022/08/05 01:10:50;;;;;;;;;;;;;;;;;;4968823;28;20004;-41
2022/08/05 01:13:16;;;;;;;;;;;;;;;;;;4968842;28;19914;-41
2022/08/05 01:15:43;;;;;;;;;;;;;;;;;;4968680;28;19918;-43
2022/08/05 01:18:09;;;;;;;;;;;;;;;;;;4968132;28;19913;-41
2022/08/05 01:20:35;;;;;;;;;;;;;;;;;;4968462;28;20451;-41
2022/08/05 01:23:01;;;;;;;;;;;;;;;;;;4968627;28;19924;-42
2022/08/05 01:25:27;;;;;;;;;;;;;;;;;;4969198;28;20387;-43
2022/08/05 01:27:53;;;;;;;;;;;;;;;;;;4968810;28;19914;-42
2022/08/05 01:30:19;;;;;;;;;;;;;;;;;;4968503;28;19918;-41
2022/08/05 01:32:44;;;;;;;;;;;;;;;;;;4968503;28;19945;-41
2022/08/05 01:35:10;;;;;;;;;;;;;;;;;;4968028;28;19920;-41
2022/08/05 01:37:36;;;;;;;;;;;;;;;;;;4968322;28;19914;-41
2022/08/05 01:40:02;;;;;;;;;;;;;;;;;;4968132;28;20152;-41
2022/08/05 01:42:28;;;;;;;;;;;;;;;;;;4968548;28;19914;-41
2022/08/05 01:44:54;;;;;;;;;;;;;;;;;;4968484;28;20457;-41
2022/08/05 01:47:20;;;;;;;;;;;;;;;;;;4968202;28;19914;-41
2022/08/05 01:49:47;;;;;;;;;;;;;;;;;;4967734;28;19961;-41
2022/08/05 01:52:13;;;;;;;;;;;;;;;;;;4967938;28;19914;-42
2022/08/05 01:54:40;;;;;;;;;;;;;;;;;;4967967;28;19914;-41
2022/08/05 01:57:06;;;;;;;;;;;;;;;;;;4967782;28;19986;-41
2022/08/05 01:59:32;;;;;;;;;;;;;;;;;;4967078;28;19922;-41
2022/08/05 02:01:58;;;;;;;;;;;;;;;;;;4967736;28;20358;-41
2022/08/05 02:04:25;;;;;;;;;;;;;;;;;;4968222;28;19968;-42
2022/08/05 02:06:51;;;;;;;;;;;;;;;;;;4967778;28;19921;-41
2022/08/05 02:09:17;;;;;;;;;;;;;;;;;;4966257;28;19910;-42
2022/08/05 02:11:43;;;;;;;;;;;;;;;;;;4967950;28;20001;-42
2022/08/05 02:14:09;;;;;;;;;;;;;;;;;;4967386;28;20029;-42
2022/08/05 02:16:35;;;;;;;;;;;;;;;;;;4967785;28;20335;-41
2022/08/05 02:19:01;;;;;;;;;;;;;;;;;;4966962;28;19918;-41
2022/08/05 02:21:27;;;;;;;;;;;;;;;;;;4968338;28;19914;-41
2022/08/05 02:23:53;;;;;;;;;;;;;;;;;;4967753;28;20267;-41
2022/08/05 02:26:19;;;;;;;;;;;;;;;;;;4967245;28;19953;-41
2022/08/05 02:28:45;;;;;;;;;;;;;;;;;;4967283;28;19910;-41
2022/08/05 02:31:11;;;;;;;;;;;;;;;;;;4967173;28;19914;-41
2022/08/05 02:33:36;;;;;;;;;;;;;;;;;;4967168;28;19910;-42
2022/08/05 02:36:02;;;;;;;;;;;;;;;;;;4967130;28;19921;-41
2022/08/05 02:38:28;;;;;;;;;;;;;;;;;;4967146;28;19941;-41
2022/08/05 02:40:54;;;;;;;;;;;;;;;;;;4967527;28;19960;-41
2022/08/05 02:43:21;;;;;;;;;;;;;;;;;;4967607;28;19992;-41
2022/08/05 02:45:48;;;;;;;;;;;;;;;;;;4967672;28;19914;-41
2022/08/05 02:48:14;;;;;;;;;;;;;;;;;;4966816;28;19917;-42
2022/08/05 02:50:44;;;;;;;;;;;;;;;;;;4967245;28;19911;-41
2022/08/05 02:53:10;;;;;;;;;;;;;;;;;;4967033;28;19910;-41
2022/08/05 02:55:36;;;;;;;;;;;;;;;;;;4966791;28;20383;-41
2022/08/05 02:58:02;;;;;;;;;;;;;;;;;;4966663;28;19914;-41
2022/08/05 03:00:28;;;;;;;;;;;;;;;;;;4966801;28;19914;-41
2022/08/05 03:02:54;;;;;;;;;;;;;;;;;;4967027;28;20375;-41
2022/08/05 03:05:20;;;;;;;;;;;;;;;;;;4966950;28;19910;-41
2022/08/05 03:07:46;;;;;;;;;;;;;;;;;;4966759;28;20414;-41
2022/08/05 03:10:12;;;;;;;;;;;;;;;;;;4966116;28;19914;-41
2022/08/05 03:12:38;;;;;;;;;;;;;;;;;;4966331;28;20314;-41
2022/08/05 03:15:04;;;;;;;;;;;;;;;;;;4966480;28;19968;-41
2022/08/05 03:17:30;;;;;;;;;;;;;;;;;;4982008;28;20474;-41
2022/08/05 03:19:56;;;;;;;;;;;;;;;;;;4986382;28;19969;-42
2022/08/05 03:22:21;;;;;;;;;;;;;;;;;;4986018;28;19920;-41
2022/08/05 03:24:47;;;;;;;;;;;;;;;;;;4985656;28;20000;-42
2022/08/05 03:27:13;;;;;;;;;;;;;;;;;;4986064;28;19916;-41
2022/08/05 03:29:39;;;;;;;;;;;;;;;;;;4986156;28;19916;-40
2022/08/05 03:32:05;;;;;;;;;;;;;;;;;;4986059;28;19933;-41
2022/08/05 03:34:31;;;;;;;;;;;;;;;;;;4985545;28;19917;-41
2022/08/05 03:36:57;;;;;;;;;;;;;;;;;;4986456;28;19915;-41
2022/08/05 03:39:23;;;;;;;;;;;;;;;;;;4986198;28;20283;-41
2022/08/05 03:41:49;;;;;;;;;;;;;;;;;;4985920;28;19917;-41
2022/08/05 03:44:15;;;;;;;;;;;;;;;;;;4985723;28;20369;-41
2022/08/05 03:46:40;;;;;;;;;;;;;;;;;;4985533;28;19916;-41
2022/08/05 03:49:06;;;;;;;;;;;;;;;;;;4985667;28;20210;-41
2022/08/05 03:51:33;;;;;;;;;;;;;;;;;;4985379;28;20448;-42
2022/08/05 03:53:59;;;;;;;;;;;;;;;;;;4985579;28;19989;-41
2022/08/05 03:56:25;;;;;;;;;;;;;;;;;;4984691;28;19910;-41
2022/08/05 03:58:51;;;;;;;;;;;;;;;;;;4985375;28;19925;-41
2022/08/05 04:01:18;;;;;;;;;;;;;;;;;;4985720;28;19918;-41
2022/08/05 04:03:44;;;;;;;;;;;;;;;;;;4985201;28;19960;-41
2022/08/05 04:06:10;;;;;;;;;;;;;;;;;;4985727;28;19942;-41
2022/08/05 04:08:37;;;;;;;;;;;;;;;;;;4985092;28;20497;-40
2022/08/05 04:11:03;;;;;;;;;;;;;;;;;;4985593;28;19914;-41
2022/08/05 04:13:29;;;;;;;;;;;;;;;;;;4985373;28;20378;-41
2022/08/05 04:15:55;;;;;;;;;;;;;;;;;;4986078;28;19913;-42
2022/08/05 04:18:21;;;;;;;;;;;;;;;;;;4985247;28;19937;-41
2022/08/05 04:20:47;;;;;;;;;;;;;;;;;;4985394;28;19914;-41
2022/08/05 04:23:13;;;;;;;;;;;;;;;;;;4987806;28;20342;-41
2022/08/05 04:25:39;;;;;;;;;;;;;;;;;;4988991;28;19914;-41
2022/08/05 04:28:05;;;;;;;;;;;;;;;;;;4989541;28;20027;-41
2022/08/05 04:30:31;;;;;;;;;;;;;;;;;;4988891;28;20267;-41
2022/08/05 04:32:57;;;;;;;;;;;;;;;;;;4989514;28;19914;-41
2022/08/05 04:35:23;;;;;;;;;;;;;;;;;;4989101;28;19914;-41
2022/08/05 04:37:49;;;;;;;;;;;;;;;;;;4988800;28;19921;-41
2022/08/05 04:40:15;;;;;;;;;;;;;;;;;;4988813;28;19921;-41
2022/08/05 04:42:42;;;;;;;;;;;;;;;;;;4988567;28;20403;-41
2022/08/05 04:45:08;;;;;;;;;;;;;;;;;;4988837;28;19909;-41
2022/08/05 04:47:34;;;;;;;;;;;;;;;;;;4988426;28;20264;-41
2022/08/05 04:50:00;;;;;;;;;;;;;;;;;;4988781;28;20002;-42
2022/08/05 04:52:25;;;;;;;;;;;;;;;;;;4989129;28;20354;-41
2022/08/05 04:54:51;;;;;;;;;;;;;;;;;;4987215;28;19988;-41
2022/08/05 04:57:17;;;;;;;;;;;;;;;;;;4988364;28;19914;-42
2022/08/05 04:59:43;;;;;;;;;;;;;;;;;;4988322;28;19921;-41
2022/08/05 05:02:09;;;;;;;;;;;;;;;;;;4988074;28;20214;-40
2022/08/05 05:04:35;;;;;;;;;;;;;;;;;;4987762;28;19945;-41
2022/08/05 05:07:01;;;;;;;;;;;;;;;;;;4988226;28;19964;-41
2022/08/05 05:09:28;;;;;;;;;;;;;;;;;;4988870;28;20331;-42
2022/08/05 05:11:53;;;;;;;;;;;;;;;;;;4988981;28;19979;-41
2022/08/05 05:14:19;;;;;;;;;;;;;;;;;;4988552;28;20390;-41
2022/08/05 05:16:45;;;;;;;;;;;;;;;;;;4987658;28;19914;-41
2022/08/05 05:19:12;;;;;;;;;;;;;;;;;;4988180;28;20468;-41
2022/08/05 05:21:38;;;;;;;;;;;;;;;;;;4987990;28;19913;-41
2022/08/05 05:24:04;;;;;;;;;;;;;;;;;;4988183;28;19913;-42
2022/08/05 05:26:31;;;;;;;;;;;;;;;;;;4987889;28;19910;-41
2022/08/05 05:28:58;;;;;;;;;;;;;;;;;;4988525;28;20060;-41
2022/08/05 05:31:24;;;;;;;;;;;;;;;;;;4988264;28;20264;-41
2022/08/05 05:33:49;;;;;;;;;;;;;;;;;;4987119;28;20080;-41
2022/08/05 05:36:15;;;;;;;;;;;;;;;;;;4987756;28;19965;-41
2022/08/05 05:38:41;;;;;;;;;;;;;;;;;;4987561;28;19914;-41
2022/08/05 05:41:07;;;;;;;;;;;;;;;;;;4987692;28;19914;-41
2022/08/05 05:43:34;;;;;;;;;;;;;;;;;;4987618;28;19918;-41
2022/08/05 05:46:00;;;;;;;;;;;;;;;;;;4987676;28;19941;-41
2022/08/05 05:48:26;;;;;;;;;;;;;;;;;;4987878;28;19910;-41
2022/08/05 05:50:53;;;;;;;;;;;;;;;;;;4987524;28;20346;-41
2022/08/05 05:53:19;;;;;;;;;;;;;;;;;;4987679;28;20302;-41
2022/08/05 05:55:44;;;;;;;;;;;;;;;;;;4987267;28;19910;-42
2022/08/05 05:58:10;;;;;;;;;;;;;;;;;;4987502;28;19916;-42
2022/08/05 06:00:36;;;;;;;;;;;;;;;;;;4983063;28;19913;-42
2022/08/05 06:03:02;;;;;;;;;;;;;;;;;;4963511;28;19926;-41
2022/08/05 06:05:28;;;;;;;;;;;;;;;;;;4969271;28;19957;-41
2022/08/05 06:07:54;;;;;;;;;;;;;;;;;;4970385;28;19981;-41
2022/08/05 06:10:20;;;;;;;;;;;;;;;;;;4969639;28;19981;-41
2022/08/05 06:12:46;;;;;;;;;;;;;;;;;;4968310;28;19914;-41
2022/08/05 06:15:12;;;;;;;;;;;;;;;;;;4969423;28;19911;-41
2022/08/05 06:17:38;;;;;;;;;;;;;;;;;;4968026;28;19980;-41
2022/08/05 06:20:04;;;;;;;;;;;;;;;;;;4966293;28;20009;-42
2022/08/05 06:22:31;;;;;;;;;;;;;;;;;;4966561;28;20028;-41
2022/08/05 06:24:57;;;;;;;;;;;;;;;;;;4966065;28;19945;-42
2022/08/05 06:27:23;;;;;;;;;;;;;;;;;;4968077;28;19922;-41
2022/08/05 06:29:49;;;;;;;;;;;;;;;;;;4968781;28;20449;-41
2022/08/05 06:32:16;;;;;;;;;;;;;;;;;;4964648;28;19914;-41
2022/08/05 06:34:41;;;;;;;;;;;;;;;;;;4968041;28;20033;-41
2022/08/05 06:37:07;;;;;;;;;;;;;;;;;;4965737;28;20013;-41
2022/08/05 06:39:33;;;;;;;;;;;;;;;;;;4966901;28;19945;-41
2022/08/05 06:42:02;;;;;;;;;;;;;;;;;;4968861;28;19910;-40
2022/08/05 06:44:29;;;;;;;;;;;;;;;;;;4951742;28;20387;-41
2022/08/05 06:46:54;;;;;;;;;;;;;;;;;;4949652;28;19911;-42
2022/08/05 06:49:20;;;;;;;;;;;;;;;;;;4959712;28;19910;-50
2022/08/05 06:51:46;;;;;;;;;;;;;;;;;;4968171;28;19918;-51
2022/08/05 06:54:12;;;;;;;;;;;;;;;;;;4968140;28;19925;-52
2022/08/05 06:56:38;;;;;;;;;;;;;;;;;;4967515;28;19918;-51
2022/08/05 06:59:04;;;;;;;;;;;;;;;;;;4968359;28;19941;-51
2022/08/05 07:01:30;;;;;;;;;;;;;;;;;;4967940;28;19921;-50
2022/08/05 07:03:56;;;;;;;;;;;;;;;;;;4968744;28;19926;-52
2022/08/05 07:06:22;;;;;;;;;;;;;;;;;;4967912;28;20032;-51
2022/08/05 07:08:48;;;;;;;;;;;;;;;;;;4966753;28;19922;-52
2022/08/05 07:11:14;;;;;;;;;;;;;;;;;;4968122;28;19918;-51
2022/08/05 07:19:09;;;;;;;;;;;;;;;;;;4968078;28;19976;-52
2022/08/05 07:21:35;;;;;;;;;;;;;;;;;;4967916;28;20465;-52
2022/08/05 07:24:01;;;;;;;;;;;;;;;;;;4968422;28;19917;-51
2022/08/05 07:26:27;;;;;;;;;;;;;;;;;;4968163;28;19918;-50
2022/08/05 07:28:53;;;;;;;;;;;;;;;;;;4968129;28;19922;-53
2022/08/05 07:31:19;;;;;;;;;;;;;;;;;;4967339;28;19945;-53
2022/08/05 07:33:45;;;;;;;;;;;;;;;;;;4967525;28;19940;-51
2022/08/05 07:36:11;;;;;;;;;;;;;;;;;;4968167;28;19945;-49
2022/08/05 07:38:37;;;;;;;;;;;;;;;;;;4967477;28;20005;-52
2022/08/05 07:41:03;;;;;;;;;;;;;;;;;;4968004;28;19914;-52
2022/08/05 07:43:28;;;;;;;;;;;;;;;;;;4967584;28;19914;-52
2022/08/05 07:45:54;;;;;;;;;;;;;;;;;;4968313;28;19914;-50
2022/08/05 07:48:20;;;;;;;;;;;;;;;;;;4956587;28;20092;-51
2022/08/05 07:50:47;;;;;;;;;;;;;;;;;;4958483;28;19918;-50
2022/08/05 07:53:13;;;;;;;;;;;;;;;;;;4945661;28;19926;-51
2022/08/05 07:55:39;;;;;;;;;;;;;;;;;;4962464;28;20064;-49
2022/08/05 07:58:05;;;;;;;;;;;;;;;;;;4968771;28;20363;-49
2022/08/05 08:00:31;;;;;;;;;;;;;;;;;;4968369;28;19982;-50
2022/08/05 08:02:57;;;;;;;;;;;;;;;;;;4969566;28;19936;-53
2022/08/05 08:05:23;;;;;;;;;;;;;;;;;;4967659;28;19922;-49
2022/08/05 08:07:49;;;;;;;;;;;;;;;;;;4971306;28;19972;-51
2022/08/05 08:10:15;;;;;;;;;;;;;;;;;;4971331;28;20363;-51
2022/08/05 08:12:41;;;;;;;;;;;;;;;;;;4958467;28;19914;-49
2022/08/05 08:15:07;;;;;;;;;;;;;;;;;;4961812;28;19918;-50
2022/08/05 08:17:32;;;;;;;;;;;;;;;;;;4971241;28;20064;-52
2022/08/05 08:19:58;;;;;;;;;;;;;;;;;;4969199;28;19922;-51
2022/08/05 08:22:24;;;;;;;;;;;;;;;;;;4968966;28;20319;-53
2022/08/05 08:24:50;;;;;;;;;;;;;;;;;;4971149;28;19917;-52
2022/08/05 08:27:16;;;;;;;;;;;;;;;;;;4969252;28;19984;-52
2022/08/05 08:29:42;;;;;;;;;;;;;;;;;;4969983;28;19922;-49
2022/08/05 08:32:08;;;;;;;;;;;;;;;;;;4968536;28;19937;-51
2022/08/05 08:34:34;;;;;;;;;;;;;;;;;;4970895;28;19914;-52
2022/08/05 08:37:00;;;;;;;;;;;;;;;;;;4970026;28;19926;-51
2022/08/05 08:39:26;;;;;;;;;;;;;;;;;;4969205;28;19945;-51
2022/08/05 08:41:53;;;;;;;;;;;;;;;;;;4970927;28;19931;-50
2022/08/05 08:44:19;;;;;;;;;;;;;;;;;;4970435;28;19993;-51
2022/08/05 08:46:45;;;;;;;;;;;;;;;;;;4957276;28;20351;-53
2022/08/05 08:49:11;;;;;;;;;;;;;;;;;;4970016;28;19914;-49
2022/08/05 08:51:37;;;;;;;;;;;;;;;;;;4969590;28;19921;-49
2022/08/05 08:54:03;;;;;;;;;;;;;;;;;;4968995;28;19918;-49
2022/08/05 08:56:29;;;;;;;;;;;;;;;;;;4969895;28;19918;-52
2022/08/05 08:58:58;;;;;;;;;;;;;;;;;;4969146;28;19928;-51
2022/08/05 09:01:23;;;;;;;;;;;;;;;;;;4969381;28;19922;-53
2022/08/05 09:03:50;;;;;;;;;;;;;;;;;;4968365;28;19953;-51
2022/08/05 09:06:16;;;;;;;;;;;;;;;;;;4968704;28;19918;-51
2022/08/05 09:08:42;;;;;;;;;;;;;;;;;;4968224;28;20260;-52
2022/08/05 09:11:08;;;;;;;;;;;;;;;;;;4969979;28;20008;-50
2022/08/05 09:13:34;;;;;;;;;;;;;;;;;;4968443;28;19922;-52
2022/08/05 09:16:00;;;;;;;;;;;;;;;;;;4968234;28;19960;-50
2022/08/05 09:18:26;;;;;;;;;;;;;;;;;;4969591;28;19969;-52
2022/08/05 09:20:51;;;;;;;;;;;;;;;;;;4969870;28;19969;-52
2022/08/05 09:23:19;;;;;;;;;;;;;;;;;;4966493;28;19914;-50
2022/08/05 09:25:46;;;;;;;;;;;;;;;;;;4968368;28;19997;-52
2022/08/05 09:28:13;;;;;;;;;;;;;;;;;;4963251;28;19921;-50
2022/08/05 09:30:39;;;;;;;;;;;;;;;;;;4968505;28;20284;-52
2022/08/05 09:33:05;;;;;;;;;;;;;;;;;;4969210;28;19961;-49
2022/08/05 09:35:31;;;;;;;;;;;;;;;;;;4963706;28;19937;-52
2022/08/05 09:37:57;;;;;;;;;;;;;;;;;;4969484;28;19914;-50
2022/08/05 09:40:23;;;;;;;;;;;;;;;;;;4970423;28;20335;-51
2022/08/05 09:42:49;;;;;;;;;;;;;;;;;;4970642;28;20021;-52
2022/08/05 09:45:15;;;;;;;;;;;;;;;;;;4968518;28;19923;-50
2022/08/05 09:47:41;;;;;;;;;;;;;;;;;;4962741;28;20022;-50
2022/08/05 09:50:07;;;;;;;;;;;;;;;;;;4968714;28;19914;-49
2022/08/05 09:52:33;;;;;;;;;;;;;;;;;;4969542;28;19925;-52
2022/08/05 09:54:59;;;;;;;;;;;;;;;;;;4968476;28;19965;-50
2022/08/05 09:57:25;;;;;;;;;;;;;;;;;;4971986;28;19921;-53
2022/08/05 09:59:51;;;;;;;;;;;;;;;;;;4989432;28;19914;-50
2022/08/05 10:02:17;;;;;;;;;;;;;;;;;;4989532;28;19909;-49
2022/08/05 10:04:44;;;;;;;;;;;;;;;;;;4971277;28;19968;-48
2022/08/05 10:07:10;;;;;;;;;;;;;;;;;;4969217;28;20380;-50
2022/08/05 10:09:36;;;;;;;;;;;;;;;;;;4968717;28;20021;-52
2022/08/05 10:12:01;;;;;;;;;;;;;;;;;;4968587;28;20017;-51
2022/08/05 10:14:27;;;;;;;;;;;;;;;;;;4968683;28;20005;-50
2022/08/05 10:16:57;;;;;;;;;;;;;;;;;;4970170;28;19933;-48
2022/08/05 10:19:23;;;;;;;;;;;;;;;;;;4969591;28;20005;-50
2022/08/05 10:21:49;;;;;;;;;;;;;;;;;;4969104;28;20041;-51
2022/08/05 10:24:15;;;;;;;;;;;;;;;;;;4966373;28;19918;-51
2022/08/05 10:26:41;;;;;;;;;;;;;;;;;;4964411;28;20020;-49
2022/08/05 10:29:07;;;;;;;;;;;;;;;;;;4949814;28;19914;-51
2022/08/05 10:31:33;;;;;;;;;;;;;;;;;;4969085;28;19969;-52
2022/08/05 10:33:59;;;;;;;;;;;;;;;;;;4968762;28;19936;-51
2022/08/05 10:36:25;;;;;;;;;;;;;;;;;;4966814;28;19922;-51
2022/08/05 10:38:51;;;;;;;;;;;;;;;;;;4969475;28;19914;-50
2022/08/05 10:41:17;;;;;;;;;;;;;;;;;;4969646;28;19917;-49
2022/08/05 10:43:43;;;;;;;;;;;;;;;;;;4968263;28;19926;-49
2022/08/05 10:46:09;;;;;;;;;;;;;;;;;;4968359;28;19925;-48
2022/08/05 10:48:35;;;;;;;;;;;;;;;;;;4961792;28;19960;-51
2022/08/05 10:51:02;;;;;;;;;;;;;;;;;;4967171;28;19914;-48
2022/08/05 10:53:28;;;;;;;;;;;;;;;;;;4963770;28;19915;-48
2022/08/05 10:55:54;;;;;;;;;;;;;;;;;;4964122;28;20276;-48
2022/08/05 10:58:20;;;;;;;;;;;;;;;;;;4949797;29;19915;-50
2022/08/05 11:00:47;;;;;;;;;;;;;;;;;;4949671;29;19914;-50
2022/08/05 11:03:13;;;;;;;;;;;;;;;;;;4954258;28;19929;-49
2022/08/05 11:05:39;;;;;;;;;;;;;;;;;;4969320;28;19967;-50
2022/08/05 11:08:05;;;;;;;;;;;;;;;;;;4967846;28;19926;-54
2022/08/05 11:10:31;;;;;;;;;;;;;;;;;;4965943;28;19925;-48
2022/08/05 11:12:57;;;;;;;;;;;;;;;;;;4966615;28;19918;-49
2022/08/05 11:15:26;;;;;;;;;;;;;;;;;;4972702;28;20282;-48
2022/08/05 11:17:51;;;;;;;;;;;;;;;;;;4967891;28;20264;-50
2022/08/05 11:20:17;;;;;;;;;;;;;;;;;;4963061;28;19919;-48
2022/08/05 11:22:43;;;;;;;;;;;;;;;;;;4947936;28;20038;-49
2022/08/05 11:25:09;;;;;;;;;;;;;;;;;;4952507;28;19914;-48
2022/08/05 11:27:35;;;;;;;;;;;;;;;;;;4966800;28;19914;-49
2022/08/05 11:30:01;;;;;;;;;;;;;;;;;;4963770;28;19925;-52
2022/08/05 11:32:27;;;;;;;;;;;;;;;;;;4964722;28;19918;-50
2022/08/05 11:34:53;;;;;;;;;;;;;;;;;;4966967;28;19910;-50
2022/08/05 11:37:20;;;;;;;;;;;;;;;;;;4960066;28;19921;-51
2022/08/05 11:39:46;;;;;;;;;;;;;;;;;;4958590;28;19922;-49
2022/08/05 11:42:12;;;;;;;;;;;;;;;;;;4955552;28;20143;-50
2022/08/05 11:44:38;;;;;;;;;;;;;;;;;;4966682;28;20005;-50
2022/08/05 11:47:05;;;;;;;;;;;;;;;;;;4957639;28;19924;-49
2022/08/05 11:49:31;;;;;;;;;;;;;;;;;;4960324;28;19925;-52
2022/08/05 11:51:57;;;;;;;;;;;;;;;;;;4966097;28;20282;-50
2022/08/05 11:54:25;;;;;;;;;;;;;;;;;;4963722;28;19921;-52
2022/08/05 11:56:50;;;;;;;;;;;;;;;;;;4967029;28;19922;-49
2022/08/05 11:59:18;;;;;;;;;;;;;;;;;;4966868;28;19933;-48
2022/08/05 12:01:44;;;;;;;;;;;;;;;;;;4967205;28;19917;-49
2022/08/05 12:04:10;;;;;;;;;;;;;;;;;;4965502;28;19918;-51
2022/08/05 12:06:36;;;;;;;;;;;;;;;;;;4968187;28;19922;-52
2022/08/05 12:09:02;;;;;;;;;;;;;;;;;;4971751;28;19988;-48
2022/08/05 12:11:29;;;;;;;;;;;;;;;;;;4965130;28;19949;-49
2022/08/05 12:13:55;;;;;;;;;;;;;;;;;;4962619;28;19938;-49
2022/08/05 12:16:21;;;;;;;;;;;;;;;;;;4954879;28;19926;-50
2022/08/05 12:18:47;;;;;;;;;;;;;;;;;;4968188;28;19914;-49
2022/08/05 12:21:14;;;;;;;;;;;;;;;;;;4968277;28;19960;-51
2022/08/05 12:23:40;;;;;;;;;;;;;;;;;;4965324;28;20012;-51
2022/08/05 12:26:05;;;;;;;;;;;;;;;;;;4966450;28;20016;-49
2022/08/05 12:28:31;;;;;;;;;;;;;;;;;;4963330;28;20012;-53
2022/08/05 12:30:57;;;;;;;;;;;;;;;;;;4967062;28;19918;-49
2022/08/05 12:33:25;;;;;;;;;;;;;;;;;;4967327;28;19918;-49
2022/08/05 12:35:51;;;;;;;;;;;;;;;;;;4968011;28;20397;-51
2022/08/05 12:38:17;;;;;;;;;;;;;;;;;;4966072;28;20021;-49
2022/08/05 12:40:42;;;;;;;;;;;;;;;;;;4968518;28;19953;-50
2022/08/05 12:43:08;;;;;;;;;;;;;;;;;;4969037;28;19917;-52
2022/08/05 12:45:34;;;;;;;;;;;;;;;;;;4962530;28;19914;-52
2022/08/05 12:48:01;;;;;;;;;;;;;;;;;;4969563;28;20021;-52
2022/08/05 12:50:26;;;;;;;;;;;;;;;;;;4967561;28;19925;-50
2022/08/05 12:52:52;;;;;;;;;;;;;;;;;;4971670;28;19914;-52
2022/08/05 12:55:18;;;;;;;;;;;;;;;;;;4968983;28;19921;-52
2022/08/05 12:57:44;;;;;;;;;;;;;;;;;;4968135;28;19993;-52
2022/08/05 13:00:10;;;;;;;;;;;;;;;;;;4970184;28;20009;-52
2022/08/05 13:02:36;;;;;;;;;;;;;;;;;;4970090;28;19918;-55
2022/08/05 13:05:02;;;;;;;;;;;;;;;;;;4968986;28;19922;-50
2022/08/05 13:07:28;;;;;;;;;;;;;;;;;;4966178;28;19926;-51
2022/08/05 13:09:54;;;;;;;;;;;;;;;;;;4969487;28;19961;-51
2022/08/05 13:12:20;;;;;;;;;;;;;;;;;;4969458;28;19914;-50
2022/08/05 13:14:46;;;;;;;;;;;;;;;;;;4970756;28;19926;-50
2022/08/05 13:17:12;;;;;;;;;;;;;;;;;;4970584;28;20391;-50
2022/08/05 13:19:38;;;;;;;;;;;;;;;;;;4970024;28;19927;-52
2022/08/05 13:22:04;;;;;;;;;;;;;;;;;;4970769;28;19914;-50
2022/08/05 13:24:30;;;;;;;;;;;;;;;;;;4970779;28;19910;-53
2022/08/05 13:26:56;;;;;;;;;;;;;;;;;;4969959;28;19961;-53
2022/08/05 13:29:22;;;;;;;;;;;;;;;;;;4970611;28;19914;-50
2022/08/05 13:31:48;;;;;;;;;;;;;;;;;;4970806;28;19914;-48
2022/08/05 13:34:14;;;;;;;;;;;;;;;;;;4970738;28;19965;-51
2022/08/05 13:36:40;;;;;;;;;;;;;;;;;;4971271;28;20005;-50
2022/08/05 13:39:06;;;;;;;;;;;;;;;;;;4970330;28;19918;-52
2022/08/05 13:41:32;;;;;;;;;;;;;;;;;;4968834;28;19922;-52
2022/08/05 13:43:58;;;;;;;;;;;;;;;;;;4969367;28;19922;-51
2022/08/05 13:46:24;;;;;;;;;;;;;;;;;;4969245;28;19910;-51
2022/08/05 13:48:50;;;;;;;;;;;;;;;;;;4966788;28;19914;-41
2022/08/05 13:51:16;;;;;;;;;;;;;;;;;;4959963;28;19918;-41
2022/08/05 13:53:42;;;;;;;;;;;;;;;;;;4951050;29;19919;-41
2022/08/05 13:56:08;;;;;;;;;;;;;;;;;;4968362;28;19956;-41
2022/08/05 13:58:34;;;;;;;;;;;;;;;;;;4969197;28;20318;-41
2022/08/05 14:01:00;;;;;;;;;;;;;;;;;;4969495;28;20016;-41
2022/08/05 14:03:27;;;;;;;;;;;;;;;;;;4968694;28;19945;-41
2022/08/05 14:05:52;;;;;;;;;;;;;;;;;;4968814;28;20106;-41
2022/08/05 14:08:18;;;;;;;;;;;;;;;;;;4968593;28;19989;-41
2022/08/05 14:10:44;;;;;;;;;;;;;;;;;;4968504;28;19950;-41
2022/08/05 14:13:10;;;;;;;;;;;;;;;;;;4969450;28;19988;-41
2022/08/05 14:15:36;;;;;;;;;;;;;;;;;;4968570;28;20473;-41
2022/08/05 14:18:03;;;;;;;;;;;;;;;;;;4967994;28;19925;-41
2022/08/05 14:20:29;;;;;;;;;;;;;;;;;;4967247;28;19949;-42
2022/08/05 14:22:55;;;;;;;;;;;;;;;;;;4967201;28;19917;-41
2022/08/05 14:25:23;;;;;;;;;;;;;;;;;;4969286;28;20227;-41
2022/08/05 14:27:49;;;;;;;;;;;;;;;;;;4967474;28;19910;-41
2022/08/05 14:30:16;;;;;;;;;;;;;;;;;;4966565;28;19921;-42
2022/08/05 14:32:42;;;;;;;;;;;;;;;;;;4969013;28;19915;-41
2022/08/05 14:35:08;;;;;;;;;;;;;;;;;;4967132;28;19965;-41
2022/08/05 14:37:34;;;;;;;;;;;;;;;;;;4968191;28;20387;-41
2022/08/05 14:40:00;;;;;;;;;;;;;;;;;;4968393;28;19921;-41
2022/08/05 14:42:26;;;;;;;;;;;;;;;;;;4968125;28;19957;-41
2022/08/05 14:44:52;;;;;;;;;;;;;;;;;;4968488;28;20700;-41
2022/08/05 14:47:18;;;;;;;;;;;;;;;;;;4966763;28;20009;-40
2022/08/05 14:49:44;;;;;;;;;;;;;;;;;;4967626;28;19921;-41
2022/08/05 14:52:09;;;;;;;;;;;;;;;;;;4959546;28;19915;-41
2022/08/05 14:54:35;;;;;;;;;;;;;;;;;;4948892;29;19917;-41
2022/08/05 14:57:01;;;;;;;;;;;;;;;;;;4948908;29;20221;-40
2022/08/05 14:59:27;;;;;;;;;;;;;;;;;;4948533;29;19919;-41
2022/08/05 15:01:53;;;;;;;;;;;;;;;;;;4948823;29;19957;-41
2022/08/05 15:04:19;;;;;;;;;;;;;;;;;;4955204;28;19918;-41
2022/08/05 15:06:46;;;;;;;;;;;;;;;;;;4967870;28;19910;-41
2022/08/05 15:09:12;;;;;;;;;;;;;;;;;;4968632;28;19914;-41
2022/08/05 15:11:38;;;;;;;;;;;;;;;;;;4967634;28;19960;-41
2022/08/05 15:14:03;;;;;;;;;;;;;;;;;;4967830;28;19914;-41
2022/08/05 15:16:29;;;;;;;;;;;;;;;;;;4967692;28;19917;-40
2022/08/05 15:18:55;;;;;;;;;;;;;;;;;;4967431;28;19914;-41
2022/08/05 15:21:21;;;;;;;;;;;;;;;;;;4967808;28;19915;-41
2022/08/05 15:23:47;;;;;;;;;;;;;;;;;;4967998;28;20004;-41
2022/08/05 15:26:16;;;;;;;;;;;;;;;;;;4969464;28;19910;-41
2022/08/05 15:28:43;;;;;;;;;;;;;;;;;;4968816;28;19918;-41
2022/08/05 15:31:09;;;;;;;;;;;;;;;;;;4968566;28;19921;-41
2022/08/05 15:33:35;;;;;;;;;;;;;;;;;;4968844;28;20282;-41
2022/08/05 15:36:00;;;;;;;;;;;;;;;;;;4968178;28;19934;-41
2022/08/05 15:38:26;;;;;;;;;;;;;;;;;;4965832;28;19914;-41
2022/08/05 15:40:52;;;;;;;;;;;;;;;;;;4967918;28;19932;-41
2022/08/05 15:43:19;;;;;;;;;;;;;;;;;;4970614;28;19962;-41
2022/08/05 15:45:45;;;;;;;;;;;;;;;;;;4967552;28;19914;-41
2022/08/05 15:48:11;;;;;;;;;;;;;;;;;;4969011;28;19914;-41
2022/08/05 15:50:37;;;;;;;;;;;;;;;;;;4967521;28;19918;-42
2022/08/05 15:53:03;;;;;;;;;;;;;;;;;;4960315;28;19964;-41
2022/08/05 15:55:29;;;;;;;;;;;;;;;;;;4967116;28;19918;-40
2022/08/05 15:57:55;;;;;;;;;;;;;;;;;;4967318;28;19918;-41
2022/08/05 16:00:21;;;;;;;;;;;;;;;;;;4967385;28;19921;-40
2022/08/05 16:02:47;;;;;;;;;;;;;;;;;;4967448;28;20004;-40
2022/08/05 16:05:13;;;;;;;;;;;;;;;;;;4964665;28;19977;-40
2022/08/05 16:07:38;;;;;;;;;;;;;;;;;;4967333;28;20391;-41
2022/08/05 16:10:04;;;;;;;;;;;;;;;;;;4967094;28;19921;-40
2022/08/05 16:12:30;;;;;;;;;;;;;;;;;;4965031;28;19915;-40
2022/08/05 16:14:56;;;;;;;;;;;;;;;;;;4966803;28;20272;-40
2022/08/05 16:17:23;;;;;;;;;;;;;;;;;;4966081;28;19926;-40
2022/08/05 16:19:49;;;;;;;;;;;;;;;;;;4969861;28;19960;-41
2022/08/05 16:22:15;;;;;;;;;;;;;;;;;;4971230;28;20005;-41
2022/08/05 16:24:41;;;;;;;;;;;;;;;;;;4971976;28;19920;-40
2022/08/05 16:27:06;;;;;;;;;;;;;;;;;;4969922;28;19913;-40
2022/08/05 16:29:32;;;;;;;;;;;;;;;;;;4971773;28;19918;-41
2022/08/05 16:31:58;;;;;;;;;;;;;;;;;;4969825;28;20005;-40
2022/08/05 16:34:24;;;;;;;;;;;;;;;;;;4971764;28;19914;-40
2022/08/05 16:36:50;;;;;;;;;;;;;;;;;;4972115;28;20402;-40
2022/08/05 16:39:16;;;;;;;;;;;;;;;;;;4971714;28;19914;-40
2022/08/05 16:41:42;;;;;;;;;;;;;;;;;;4967169;28;19956;-40